Terminal Aerodrome Forecast
Issued by NWS

Home | Current Version | Previous Version | Text Only | Print | Product List | Glossary Off
Versions: 1 2 3 4 5 6 7 8 9 10 11 12 13

000
FTUS43 KGRB 171720
TAFAUW
TAF
KAUW 171720Z 1718/1818 17004KT P6SM SKC
     FM180200 21006KT 6SM BR SKC WS015/24040KT
     FM180900 26008KT 4SM BR FEW005 WS015/29035KT
     FM181100 29007KT 3SM BR BKN005 WS015/31035KT
     FM181400 29007KT 6SM BR FEW005
     FM181600 28007KT P6SM SKC=

USA.gov is the U.S. government's official web portal to all federal, state and local government web resources and services.